sensor_id;sensor_type;location;lat;lon;timestamp;P1;durP1;ratioP1;P2;durP2;ratioP2
31095;SDS011;17749;51.962;8.560;2023-07-31T05:01:20;28.08;;;12.10;;
31095;SDS011;17749;51.962;8.560;2023-07-31T05:03:47;26.05;;;12.18;;
31095;SDS011;17749;51.962;8.560;2023-07-31T05:06:14;27.85;;;12.18;;
31095;SDS011;17749;51.962;8.560;2023-07-31T05:08:42;24.00;;;10.93;;
31095;SDS011;17749;51.962;8.560;2023-07-31T05:11:09;19.17;;;11.00;;
31095;SDS011;17749;51.962;8.560;2023-07-31T05:13:50;22.65;;;10.38;;
31095;SDS011;17749;51.962;8.560;2023-07-31T05:19:20;22.10;;;10.55;;
31095;SDS011;17749;51.962;8.560;2023-07-31T05:21:47;27.77;;;9.75;;
31095;SDS011;17749;51.962;8.560;2023-07-31T05:24:14;17.63;;;9.35;;
31095;SDS011;17749;51.962;8.560;2023-07-31T05:26:41;25.58;;;10.35;;
31095;SDS011;17749;51.962;8.560;2023-07-31T05:29:08;22.23;;;9.82;;
31095;SDS011;17749;51.962;8.560;2023-07-31T05:31:35;30.10;;;9.48;;
31095;SDS011;17749;51.962;8.560;2023-07-31T05:34:02;20.58;;;9.20;;
31095;SDS011;17749;51.962;8.560;2023-07-31T05:36:29;15.77;;;9.82;;
31095;SDS011;17749;51.962;8.560;2023-07-31T05:38:56;23.45;;;9.13;;
31095;SDS011;17749;51.962;8.560;2023-07-31T05:41:23;20.45;;;8.82;;
31095;SDS011;17749;51.962;8.560;2023-07-31T05:43:50;23.67;;;8.93;;
31095;SDS011;17749;51.962;8.560;2023-07-31T05:46:18;17.35;;;8.80;;
31095;SDS011;17749;51.962;8.560;2023-07-31T05:48:45;21.73;;;8.73;;
31095;SDS011;17749;51.962;8.560;2023-07-31T05:51:11;23.55;;;9.13;;
31095;SDS011;17749;51.962;8.560;2023-07-31T05:53:38;15.57;;;8.43;;
31095;SDS011;17749;51.962;8.560;2023-07-31T05:56:07;17.17;;;8.73;;
31095;SDS011;17749;51.962;8.560;2023-07-31T05:58:34;17.05;;;8.20;;
31095;SDS011;17749;51.962;8.560;2023-07-31T06:01:01;14.40;;;7.80;;
31095;SDS011;17749;51.962;8.560;2023-07-31T06:03:28;19.52;;;8.05;;
31095;SDS011;17749;51.962;8.560;2023-07-31T06:05:55;19.70;;;7.75;;
31095;SDS011;17749;51.962;8.560;2023-07-31T06:08:22;19.45;;;7.78;;
31095;SDS011;17749;51.962;8.560;2023-07-31T06:10:49;18.42;;;7.95;;
31095;SDS011;17749;51.962;8.560;2023-07-31T06:13:16;16.65;;;7.78;;
31095;SDS011;17749;51.962;8.560;2023-07-31T06:15:42;15.20;;;7.65;;
31095;SDS011;17749;51.962;8.560;2023-07-31T06:18:09;15.20;;;8.00;;
31095;SDS011;17749;51.962;8.560;2023-07-31T06:20:37;19.80;;;7.95;;
31095;SDS011;17749;51.962;8.560;2023-07-31T06:23:07;18.38;;;8.30;;
31095;SDS011;17749;51.962;8.560;2023-07-31T06:25:34;19.88;;;8.05;;
31095;SDS011;17749;51.962;8.560;2023-07-31T06:28:01;23.38;;;8.48;;
31095;SDS011;17749;51.962;8.560;2023-07-31T06:30:28;15.73;;;7.60;;
31095;SDS011;17749;51.962;8.560;2023-07-31T06:32:55;25.13;;;8.35;;
31095;SDS011;17749;51.962;8.560;2023-07-31T06:35:22;22.38;;;8.15;;
31095;SDS011;17749;51.962;8.560;2023-07-31T06:37:49;14.35;;;8.52;;
31095;SDS011;17749;51.962;8.560;2023-07-31T06:40:17;13.52;;;7.63;;
31095;SDS011;17749;51.962;8.560;2023-07-31T06:42:45;18.83;;;7.03;;
31095;SDS011;17749;51.962;8.560;2023-07-31T06:45:12;11.32;;;6.18;;
31095;SDS011;17749;51.962;8.560;2023-07-31T06:47:39;14.82;;;7.75;;
31095;SDS011;17749;51.962;8.560;2023-07-31T06:50:07;15.63;;;7.45;;
31095;SDS011;17749;51.962;8.560;2023-07-31T06:52:35;17.88;;;7.68;;
31095;SDS011;17749;51.962;8.560;2023-07-31T06:55:24;19.75;;;7.82;;
31095;SDS011;17749;51.962;8.560;2023-07-31T06:57:51;13.73;;;6.93;;
31095;SDS011;17749;51.962;8.560;2023-07-31T07:00:20;13.77;;;6.93;;
31095;SDS011;17749;51.962;8.560;2023-07-31T07:02:49;16.13;;;7.37;;
31095;SDS011;17749;51.962;8.560;2023-07-31T07:05:17;19.08;;;7.80;;
31095;SDS011;17749;51.962;8.560;2023-07-31T07:07:45;17.75;;;7.38;;
31095;SDS011;17749;51.962;8.560;2023-07-31T07:10:12;18.05;;;8.00;;
31095;SDS011;17749;51.962;8.560;2023-07-31T07:12:39;13.90;;;7.25;;
31095;SDS011;17749;51.962;8.560;2023-07-31T07:15:06;15.93;;;7.43;;
31095;SDS011;17749;51.962;8.560;2023-07-31T07:17:33;12.98;;;7.13;;
31095;SDS011;17749;51.962;8.560;2023-07-31T07:20:00;16.65;;;6.97;;
31095;SDS011;17749;51.962;8.560;2023-07-31T07:22:28;14.43;;;7.15;;
31095;SDS011;17749;51.962;8.560;2023-07-31T07:24:57;15.30;;;7.47;;
31095;SDS011;17749;51.962;8.560;2023-07-31T07:27:24;17.52;;;7.60;;
31095;SDS011;17749;51.962;8.560;2023-07-31T07:29:51;15.15;;;7.50;;
31095;SDS011;17749;51.962;8.560;2023-07-31T07:32:19;17.55;;;7.22;;
31095;SDS011;17749;51.962;8.560;2023-07-31T07:34:47;12.68;;;6.90;;
31095;SDS011;17749;51.962;8.560;2023-07-31T07:37:14;17.65;;;7.28;;
31095;SDS011;17749;51.962;8.560;2023-07-31T07:39:42;13.90;;;6.47;;
31095;SDS011;17749;51.962;8.560;2023-07-31T07:42:10;13.63;;;6.78;;
31095;SDS011;17749;51.962;8.560;2023-07-31T07:44:37;15.13;;;5.85;;
31095;SDS011;17749;51.962;8.560;2023-07-31T07:47:04;15.05;;;7.18;;
31095;SDS011;17749;51.962;8.560;2023-07-31T07:49:34;11.88;;;7.07;;
31095;SDS011;17749;51.962;8.560;2023-07-31T07:52:02;10.20;;;5.80;;
31095;SDS011;17749;51.962;8.560;2023-07-31T07:54:30;11.80;;;6.65;;
31095;SDS011;17749;51.962;8.560;2023-07-31T07:56:57;10.15;;;5.38;;
31095;SDS011;17749;51.962;8.560;2023-07-31T07:59:26;10.00;;;6.03;;
31095;SDS011;17749;51.962;8.560;2023-07-31T08:01:53;12.88;;;5.88;;
31095;SDS011;17749;51.962;8.560;2023-07-31T08:04:20;10.10;;;6.18;;
31095;SDS011;17749;51.962;8.560;2023-07-31T08:06:47;14.48;;;7.30;;
31095;SDS011;17749;51.962;8.560;2023-07-31T08:09:14;8.75;;;5.35;;
31095;SDS011;17749;51.962;8.560;2023-07-31T08:11:41;10.13;;;5.40;;
31095;SDS011;17749;51.962;8.560;2023-07-31T08:14:08;7.85;;;5.05;;
31095;SDS011;17749;51.962;8.560;2023-07-31T08:16:35;8.48;;;4.97;;
31095;SDS011;17749;51.962;8.560;2023-07-31T08:19:03;11.02;;;5.43;;
31095;SDS011;17749;51.962;8.560;2023-07-31T08:21:31;11.50;;;5.93;;
31095;SDS011;17749;51.962;8.560;2023-07-31T08:23:58;12.05;;;5.93;;
31095;SDS011;17749;51.962;8.560;2023-07-31T08:26:25;11.38;;;5.32;;
31095;SDS011;17749;51.962;8.560;2023-07-31T08:28:52;10.95;;;5.80;;
31095;SDS011;17749;51.962;8.560;2023-07-31T08:31:19;12.30;;;5.85;;
31095;SDS011;17749;51.962;8.560;2023-07-31T08:33:46;10.32;;;6.70;;
31095;SDS011;17749;51.962;8.560;2023-07-31T08:36:13;13.45;;;6.97;;
31095;SDS011;17749;51.962;8.560;2023-07-31T08:38:40;13.27;;;7.50;;
31095;SDS011;17749;51.962;8.560;2023-07-31T08:41:07;11.68;;;6.82;;
31095;SDS011;17749;51.962;8.560;2023-07-31T08:43:34;14.85;;;7.18;;
31095;SDS011;17749;51.962;8.560;2023-07-31T08:46:03;15.02;;;8.25;;
31095;SDS011;17749;51.962;8.560;2023-07-31T08:48:30;15.80;;;8.32;;
31095;SDS011;17749;51.962;8.560;2023-07-31T08:50:58;14.18;;;7.68;;
31095;SDS011;17749;51.962;8.560;2023-07-31T08:53:25;14.75;;;8.27;;
31095;SDS011;17749;51.962;8.560;2023-07-31T08:55:53;12.18;;;7.75;;
31095;SDS011;17749;51.962;8.560;2023-07-31T08:58:21;12.13;;;7.88;;
31095;SDS011;17749;51.962;8.560;2023-07-31T09:00:49;12.30;;;7.30;;
31095;SDS011;17749;51.962;8.560;2023-07-31T09:03:20;13.40;;;8.35;;
31095;SDS011;17749;51.962;8.560;2023-07-31T09:05:50;13.65;;;7.55;;
31095;SDS011;17749;51.962;8.560;2023-07-31T09:08:18;13.25;;;7.93;;
31095;SDS011;17749;51.962;8.560;2023-07-31T09:10:47;12.30;;;7.53;;
31095;SDS011;17749;51.962;8.560;2023-07-31T09:13:18;13.65;;;7.25;;
31095;SDS011;17749;51.962;8.560;2023-07-31T09:15:45;12.07;;;7.53;;
31095;SDS011;17749;51.962;8.560;2023-07-31T09:18:13;12.35;;;7.28;;
31095;SDS011;17749;51.962;8.560;2023-07-31T09:20:44;11.07;;;7.50;;
31095;SDS011;17749;51.962;8.560;2023-07-31T09:23:13;15.25;;;8.13;;
31095;SDS011;17749;51.962;8.560;2023-07-31T09:25:44;12.05;;;8.15;;
31095;SDS011;17749;51.962;8.560;2023-07-31T09:28:12;11.57;;;7.50;;
31095;SDS011;17749;51.962;8.560;2023-07-31T09:30:49;15.40;;;7.13;;
31095;SDS011;17749;51.962;8.560;2023-07-31T09:33:18;12.82;;;6.25;;
31095;SDS011;17749;51.962;8.560;2023-07-31T09:35:46;11.18;;;6.53;;
31095;SDS011;17749;51.962;8.560;2023-07-31T09:38:15;12.00;;;6.50;;
31095;SDS011;17749;51.962;8.560;2023-07-31T09:40:43;8.82;;;5.95;;
31095;SDS011;17749;51.962;8.560;2023-07-31T09:43:13;11.70;;;6.63;;
31095;SDS011;17749;51.962;8.560;2023-07-31T09:45:44;8.52;;;5.70;;
31095;SDS011;17749;51.962;8.560;2023-07-31T09:48:15;9.23;;;5.28;;
31095;SDS011;17749;51.962;8.560;2023-07-31T09:50:44;13.95;;;5.78;;
31095;SDS011;17749;51.962;8.560;2023-07-31T09:53:13;9.40;;;5.30;;
31095;SDS011;17749;51.962;8.560;2023-07-31T09:55:41;10.00;;;6.07;;
31095;SDS011;17749;51.962;8.560;2023-07-31T09:58:10;11.43;;;5.68;;
31095;SDS011;17749;51.962;8.560;2023-07-31T10:00:39;10.38;;;5.68;;
31095;SDS011;17749;51.962;8.560;2023-07-31T10:03:08;11.57;;;5.20;;
31095;SDS011;17749;51.962;8.560;2023-07-31T10:05:38;9.18;;;5.20;;
31095;SDS011;17749;51.962;8.560;2023-07-31T10:08:08;10.10;;;5.75;;
31095;SDS011;17749;51.962;8.560;2023-07-31T10:10:37;8.03;;;5.23;;
31095;SDS011;17749;51.962;8.560;2023-07-31T10:13:08;7.30;;;4.75;;
31095;SDS011;17749;51.962;8.560;2023-07-31T10:15:36;9.63;;;5.18;;
31095;SDS011;17749;51.962;8.560;2023-07-31T10:18:05;8.45;;;5.90;;
31095;SDS011;17749;51.962;8.560;2023-07-31T10:20:33;8.00;;;5.43;;
31095;SDS011;17749;51.962;8.560;2023-07-31T10:23:00;6.72;;;4.35;;
31095;SDS011;17749;51.962;8.560;2023-07-31T10:25:28;9.35;;;4.20;;
31095;SDS011;17749;51.962;8.560;2023-07-31T10:27:55;4.72;;;3.55;;
31095;SDS011;17749;51.962;8.560;2023-07-31T10:30:27;5.43;;;4.03;;
31095;SDS011;17749;51.962;8.560;2023-07-31T10:32:56;6.03;;;3.20;;
31095;SDS011;17749;51.962;8.560;2023-07-31T10:35:25;5.03;;;2.90;;
31095;SDS011;17749;51.962;8.560;2023-07-31T10:37:52;5.72;;;2.67;;
31095;SDS011;17749;51.962;8.560;2023-07-31T10:40:23;6.50;;;2.90;;
31095;SDS011;17749;51.962;8.560;2023-07-31T10:47:58;5.50;;;2.47;;
31095;SDS011;17749;51.962;8.560;2023-07-31T10:50:29;6.18;;;2.85;;
31095;SDS011;17749;51.962;8.560;2023-07-31T10:53:00;2.58;;;2.08;;
31095;SDS011;17749;51.962;8.560;2023-07-31T10:55:28;3.60;;;2.17;;
31095;SDS011;17749;51.962;8.560;2023-07-31T10:57:56;4.22;;;2.58;;
31095;SDS011;17749;51.962;8.560;2023-07-31T11:00:28;3.92;;;2.42;;
31095;SDS011;17749;51.962;8.560;2023-07-31T11:03:00;6.13;;;2.60;;
31095;SDS011;17749;51.962;8.560;2023-07-31T11:16:17;3.25;;;2.17;;
31095;SDS011;17749;51.962;8.560;2023-07-31T11:18:46;3.13;;;2.20;;
31095;SDS011;17749;51.962;8.560;2023-07-31T11:21:15;3.67;;;2.40;;
31095;SDS011;17749;51.962;8.560;2023-07-31T11:23:47;3.87;;;3.17;;
31095;SDS011;17749;51.962;8.560;2023-07-31T11:26:14;4.70;;;2.90;;
31095;SDS011;17749;51.962;8.560;2023-07-31T11:28:42;6.43;;;2.75;;
31095;SDS011;17749;51.962;8.560;2023-07-31T11:31:09;4.63;;;2.60;;
31095;SDS011;17749;51.962;8.560;2023-07-31T11:33:37;3.70;;;2.30;;
31095;SDS011;17749;51.962;8.560;2023-07-31T11:36:04;4.13;;;2.60;;
31095;SDS011;17749;51.962;8.560;2023-07-31T11:38:33;5.82;;;2.50;;
31095;SDS011;17749;51.962;8.560;2023-07-31T11:41:01;3.50;;;2.70;;
31095;SDS011;17749;51.962;8.560;2023-07-31T11:43:32;4.43;;;2.53;;
31095;SDS011;17749;51.962;8.560;2023-07-31T11:46:00;5.32;;;2.70;;
31095;SDS011;17749;51.962;8.560;2023-07-31T11:48:33;4.65;;;2.75;;
31095;SDS011;17749;51.962;8.560;2023-07-31T11:51:08;5.55;;;2.72;;
31095;SDS011;17749;51.962;8.560;2023-07-31T11:56:09;4.82;;;2.67;;
31095;SDS011;17749;51.962;8.560;2023-07-31T11:58:38;5.07;;;2.65;;
31095;SDS011;17749;51.962;8.560;2023-07-31T12:01:06;4.75;;;2.70;;
31095;SDS011;17749;51.962;8.560;2023-07-31T12:03:34;7.78;;;2.28;;
31095;SDS011;17749;51.962;8.560;2023-07-31T12:06:02;2.08;;;1.50;;
31095;SDS011;17749;51.962;8.560;2023-07-31T12:08:29;3.95;;;2.00;;
31095;SDS011;17749;51.962;8.560;2023-07-31T12:11:01;2.67;;;1.98;;
31095;SDS011;17749;51.962;8.560;2023-07-31T12:13:30;3.55;;;2.10;;
31095;SDS011;17749;51.962;8.560;2023-07-31T12:16:02;2.30;;;1.67;;
31095;SDS011;17749;51.962;8.560;2023-07-31T12:18:33;3.88;;;2.33;;
31095;SDS011;17749;51.962;8.560;2023-07-31T12:21:04;2.83;;;1.98;;
31095;SDS011;17749;51.962;8.560;2023-07-31T12:23:32;2.90;;;1.90;;
31095;SDS011;17749;51.962;8.560;2023-07-31T12:28:40;4.30;;;2.25;;
31095;SDS011;17749;51.962;8.560;2023-07-31T12:31:10;2.47;;;1.73;;
31095;SDS011;17749;51.962;8.560;2023-07-31T12:33:39;3.75;;;2.00;;
31095;SDS011;17749;51.962;8.560;2023-07-31T12:36:08;2.67;;;2.10;;
31095;SDS011;17749;51.962;8.560;2023-07-31T12:38:43;4.55;;;2.38;;
31095;SDS011;17749;51.962;8.560;2023-07-31T12:41:11;2.72;;;1.98;;
31095;SDS011;17749;51.962;8.560;2023-07-31T12:43:39;2.80;;;1.98;;
31095;SDS011;17749;51.962;8.560;2023-07-31T12:46:07;2.63;;;1.85;;
31095;SDS011;17749;51.962;8.560;2023-07-31T12:48:35;3.42;;;2.00;;
31095;SDS011;17749;51.962;8.560;2023-07-31T12:51:03;2.63;;;2.15;;
31095;SDS011;17749;51.962;8.560;2023-07-31T12:53:30;3.28;;;2.28;;
31095;SDS011;17749;51.962;8.560;2023-07-31T12:55:57;7.15;;;2.55;;
31095;SDS011;17749;51.962;8.560;2023-07-31T12:58:25;3.40;;;2.45;;
31095;SDS011;17749;51.962;8.560;2023-07-31T13:00:52;5.60;;;2.78;;
31095;SDS011;17749;51.962;8.560;2023-07-31T13:03:19;4.13;;;2.88;;
31095;SDS011;17749;51.962;8.560;2023-07-31T13:05:46;5.75;;;3.25;;
31095;SDS011;17749;51.962;8.560;2023-07-31T13:08:13;4.20;;;2.90;;
31095;SDS011;17749;51.962;8.560;2023-07-31T13:10:42;5.22;;;3.72;;
31095;SDS011;17749;51.962;8.560;2023-07-31T13:13:09;6.60;;;4.47;;
31095;SDS011;17749;51.962;8.560;2023-07-31T13:15:36;8.98;;;5.03;;
31095;SDS011;17749;51.962;8.560;2023-07-31T13:18:04;5.97;;;4.47;;
31095;SDS011;17749;51.962;8.560;2023-07-31T13:20:31;6.40;;;3.90;;
31095;SDS011;17749;51.962;8.560;2023-07-31T13:22:58;5.47;;;4.10;;
31095;SDS011;17749;51.962;8.560;2023-07-31T13:25:25;4.90;;;4.07;;
31095;SDS011;17749;51.962;8.560;2023-07-31T13:27:52;4.90;;;3.70;;
31095;SDS011;17749;51.962;8.560;2023-07-31T13:30:19;7.22;;;4.30;;
31095;SDS011;17749;51.962;8.560;2023-07-31T13:32:46;7.82;;;4.45;;
31095;SDS011;17749;51.962;8.560;2023-07-31T13:35:13;5.85;;;3.53;;
31095;SDS011;17749;51.962;8.560;2023-07-31T13:37:40;6.60;;;3.95;;
31095;SDS011;17749;51.962;8.560;2023-07-31T13:40:07;6.18;;;4.10;;
31095;SDS011;17749;51.962;8.560;2023-07-31T13:42:34;6.38;;;3.55;;
31095;SDS011;17749;51.962;8.560;2023-07-31T13:45:01;5.20;;;3.45;;
31095;SDS011;17749;51.962;8.560;2023-07-31T13:47:32;5.00;;;3.65;;
31095;SDS011;17749;51.962;8.560;2023-07-31T13:50:01;4.40;;;3.80;;
31095;SDS011;17749;51.962;8.560;2023-07-31T13:52:29;5.45;;;3.63;;
31095;SDS011;17749;51.962;8.560;2023-07-31T13:54:56;5.10;;;3.65;;
31095;SDS011;17749;51.962;8.560;2023-07-31T13:57:22;5.50;;;3.88;;
31095;SDS011;17749;51.962;8.560;2023-07-31T13:59:50;7.13;;;3.92;;
31095;SDS011;17749;51.962;8.560;2023-07-31T14:02:17;4.78;;;3.58;;
31095;SDS011;17749;51.962;8.560;2023-07-31T14:04:44;4.40;;;3.55;;
31095;SDS011;17749;51.962;8.560;2023-07-31T14:07:11;4.53;;;3.33;;
31095;SDS011;17749;51.962;8.560;2023-07-31T14:09:38;3.83;;;2.72;;
31095;SDS011;17749;51.962;8.560;2023-07-31T14:12:05;6.65;;;3.50;;
31095;SDS011;17749;51.962;8.560;2023-07-31T14:14:32;4.45;;;3.25;;
31095;SDS011;17749;51.962;8.560;2023-07-31T14:17:01;7.13;;;2.88;;
31095;SDS011;17749;51.962;8.560;2023-07-31T14:19:28;6.57;;;3.28;;
31095;SDS011;17749;51.962;8.560;2023-07-31T14:21:58;6.32;;;2.95;;
31095;SDS011;17749;51.962;8.560;2023-07-31T14:24:36;7.53;;;3.15;;
31095;SDS011;17749;51.962;8.560;2023-07-31T14:27:03;5.70;;;3.30;;
31095;SDS011;17749;51.962;8.560;2023-07-31T14:29:30;6.07;;;4.03;;
31095;SDS011;17749;51.962;8.560;2023-07-31T14:31:57;4.95;;;2.83;;
31095;SDS011;17749;51.962;8.560;2023-07-31T14:34:24;7.40;;;3.70;;
31095;SDS011;17749;51.962;8.560;2023-07-31T14:36:51;6.55;;;3.80;;
31095;SDS011;17749;51.962;8.560;2023-07-31T14:39:18;4.53;;;2.97;;
31095;SDS011;17749;51.962;8.560;2023-07-31T14:41:45;5.72;;;3.47;;
31095;SDS011;17749;51.962;8.560;2023-07-31T14:44:13;4.40;;;3.35;;
31095;SDS011;17749;51.962;8.560;2023-07-31T14:46:39;6.50;;;2.88;;
31095;SDS011;17749;51.962;8.560;2023-07-31T14:49:07;4.43;;;2.35;;
31095;SDS011;17749;51.962;8.560;2023-07-31T14:51:34;4.45;;;2.40;;
31095;SDS011;17749;51.962;8.560;2023-07-31T14:54:01;3.05;;;2.33;;
31095;SDS011;17749;51.962;8.560;2023-07-31T14:56:29;6.03;;;2.42;;
31095;SDS011;17749;51.962;8.560;2023-07-31T14:58:56;5.75;;;3.35;;
31095;SDS011;17749;51.962;8.560;2023-07-31T15:01:24;3.22;;;2.40;;
31095;SDS011;17749;51.962;8.560;2023-07-31T15:03:51;3.35;;;2.30;;
31095;SDS011;17749;51.962;8.560;2023-07-31T15:06:18;4.22;;;2.22;;
31095;SDS011;17749;51.962;8.560;2023-07-31T15:08:45;5.18;;;3.00;;
31095;SDS011;17749;51.962;8.560;2023-07-31T15:11:12;4.15;;;2.10;;
31095;SDS011;17749;51.962;8.560;2023-07-31T15:13:41;5.22;;;2.95;;
31095;SDS011;17749;51.962;8.560;2023-07-31T15:16:08;4.95;;;2.78;;
31095;SDS011;17749;51.962;8.560;2023-07-31T15:18:35;5.10;;;2.15;;
31095;SDS011;17749;51.962;8.560;2023-07-31T15:21:02;3.38;;;2.13;;
31095;SDS011;17749;51.962;8.560;2023-07-31T15:23:29;3.47;;;2.53;;
31095;SDS011;17749;51.962;8.560;2023-07-31T15:25:56;3.38;;;2.28;;
31095;SDS011;17749;51.962;8.560;2023-07-31T15:28:23;2.97;;;1.90;;
31095;SDS011;17749;51.962;8.560;2023-07-31T15:30:50;6.15;;;2.40;;
31095;SDS011;17749;51.962;8.560;2023-07-31T15:33:17;7.28;;;2.47;;
31095;SDS011;17749;51.962;8.560;2023-07-31T15:35:44;4.43;;;2.40;;
31095;SDS011;17749;51.962;8.560;2023-07-31T15:38:12;4.43;;;2.30;;
31095;SDS011;17749;51.962;8.560;2023-07-31T15:40:40;3.20;;;2.42;;
31095;SDS011;17749;51.962;8.560;2023-07-31T15:43:07;3.97;;;2.25;;
31095;SDS011;17749;51.962;8.560;2023-07-31T15:45:34;4.75;;;2.30;;
31095;SDS011;17749;51.962;8.560;2023-07-31T15:48:01;3.75;;;2.83;;
31095;SDS011;17749;51.962;8.560;2023-07-31T15:50:28;3.33;;;2.33;;
31095;SDS011;17749;51.962;8.560;2023-07-31T15:52:55;3.55;;;2.33;;
31095;SDS011;17749;51.962;8.560;2023-07-31T15:55:22;4.07;;;2.60;;
31095;SDS011;17749;51.962;8.560;2023-07-31T15:57:51;7.47;;;3.47;;
31095;SDS011;17749;51.962;8.560;2023-07-31T16:00:18;3.80;;;2.85;;
31095;SDS011;17749;51.962;8.560;2023-07-31T16:02:45;5.07;;;2.70;;
31095;SDS011;17749;51.962;8.560;2023-07-31T16:05:12;4.53;;;2.90;;
31095;SDS011;17749;51.962;8.560;2023-07-31T16:07:39;4.00;;;2.75;;
31095;SDS011;17749;51.962;8.560;2023-07-31T16:10:07;5.13;;;2.97;;
31095;SDS011;17749;51.962;8.560;2023-07-31T16:12:34;4.55;;;3.28;;
31095;SDS011;17749;51.962;8.560;2023-07-31T16:15:01;3.30;;;2.58;;
31095;SDS011;17749;51.962;8.560;2023-07-31T16:17:28;4.28;;;3.30;;
31095;SDS011;17749;51.962;8.560;2023-07-31T16:19:55;5.10;;;2.92;;
31095;SDS011;17749;51.962;8.560;2023-07-31T16:22:22;5.03;;;3.30;;
31095;SDS011;17749;51.962;8.560;2023-07-31T16:24:49;3.50;;;2.65;;
31095;SDS011;17749;51.962;8.560;2023-07-31T16:27:16;6.72;;;3.53;;
31095;SDS011;17749;51.962;8.560;2023-07-31T16:29:45;4.90;;;3.13;;
31095;SDS011;17749;51.962;8.560;2023-07-31T16:32:12;5.55;;;3.38;;
31095;SDS011;17749;51.962;8.560;2023-07-31T16:34:39;3.95;;;3.00;;
31095;SDS011;17749;51.962;8.560;2023-07-31T16:37:06;5.78;;;3.40;;
31095;SDS011;17749;51.962;8.560;2023-07-31T16:39:34;6.82;;;3.50;;
31095;SDS011;17749;51.962;8.560;2023-07-31T16:42:05;5.47;;;2.80;;
31095;SDS011;17749;51.962;8.560;2023-07-31T16:44:32;4.43;;;2.92;;
31095;SDS011;17749;51.962;8.560;2023-07-31T16:46:59;5.13;;;3.50;;
31095;SDS011;17749;51.962;8.560;2023-07-31T16:49:26;7.00;;;3.45;;
31095;SDS011;17749;51.962;8.560;2023-07-31T16:51:53;6.38;;;3.63;;
31095;SDS011;17749;51.962;8.560;2023-07-31T16:54:20;5.38;;;3.53;;
31095;SDS011;17749;51.962;8.560;2023-07-31T16:56:47;6.50;;;3.67;;
31095;SDS011;17749;51.962;8.560;2023-07-31T16:59:25;4.07;;;3.15;;
31095;SDS011;17749;51.962;8.560;2023-07-31T17:01:52;5.55;;;3.42;;
31095;SDS011;17749;51.962;8.560;2023-07-31T17:06:49;8.07;;;3.17;;
31095;SDS011;17749;51.962;8.560;2023-07-31T17:09:16;5.55;;;3.75;;
31095;SDS011;17749;51.962;8.560;2023-07-31T17:11:43;7.95;;;4.50;;
31095;SDS011;17749;51.962;8.560;2023-07-31T17:14:10;6.78;;;4.15;;
31095;SDS011;17749;51.962;8.560;2023-07-31T17:16:41;13.65;;;4.82;;
31095;SDS011;17749;51.962;8.560;2023-07-31T17:19:09;8.55;;;4.75;;
31095;SDS011;17749;51.962;8.560;2023-07-31T17:21:36;8.95;;;3.97;;
31095;SDS011;17749;51.962;8.560;2023-07-31T17:24:04;10.55;;;5.18;;
31095;SDS011;17749;51.962;8.560;2023-07-31T17:26:31;7.95;;;5.00;;
31095;SDS011;17749;51.962;8.560;2023-07-31T17:28:59;8.20;;;4.85;;
31095;SDS011;17749;51.962;8.560;2023-07-31T17:31:28;7.93;;;5.53;;
31095;SDS011;17749;51.962;8.560;2023-07-31T17:33:56;6.63;;;4.70;;
31095;SDS011;17749;51.962;8.560;2023-07-31T17:36:24;7.03;;;5.10;;
31095;SDS011;17749;51.962;8.560;2023-07-31T17:38:51;7.07;;;4.85;;
31095;SDS011;17749;51.962;8.560;2023-07-31T17:41:18;8.02;;;5.22;;
31095;SDS011;17749;51.962;8.560;2023-07-31T17:43:45;9.43;;;5.40;;
31095;SDS011;17749;51.962;8.560;2023-07-31T17:46:12;10.57;;;6.85;;
31095;SDS011;17749;51.962;8.560;2023-07-31T17:48:40;8.85;;;6.13;;
31095;SDS011;17749;51.962;8.560;2023-07-31T17:51:09;8.48;;;5.80;;
31095;SDS011;17749;51.962;8.560;2023-07-31T17:53:36;6.78;;;5.60;;
31095;SDS011;17749;51.962;8.560;2023-07-31T17:56:03;8.70;;;6.03;;
31095;SDS011;17749;51.962;8.560;2023-07-31T17:58:30;9.35;;;6.22;;
31095;SDS011;17749;51.962;8.560;2023-07-31T18:00:57;9.65;;;5.75;;
31095;SDS011;17749;51.962;8.560;2023-07-31T18:03:25;8.18;;;6.47;;
31095;SDS011;17749;51.962;8.560;2023-07-31T18:05:52;7.97;;;6.18;;
31095;SDS011;17749;51.962;8.560;2023-07-31T18:08:19;9.25;;;6.10;;
31095;SDS011;17749;51.962;8.560;2023-07-31T18:10:46;8.48;;;5.60;;
31095;SDS011;17749;51.962;8.560;2023-07-31T18:13:14;10.75;;;6.35;;
31095;SDS011;17749;51.962;8.560;2023-07-31T18:15:44;8.85;;;6.40;;
31095;SDS011;17749;51.962;8.560;2023-07-31T18:18:12;11.70;;;7.45;;
31095;SDS011;17749;51.962;8.560;2023-07-31T18:20:39;10.60;;;7.60;;
31095;SDS011;17749;51.962;8.560;2023-07-31T18:23:07;11.32;;;7.30;;
31095;SDS011;17749;51.962;8.560;2023-07-31T18:25:33;10.65;;;7.60;;
31095;SDS011;17749;51.962;8.560;2023-07-31T18:28:00;13.43;;;6.75;;
31095;SDS011;17749;51.962;8.560;2023-07-31T18:30:27;8.25;;;5.90;;
31095;SDS011;17749;51.962;8.560;2023-07-31T18:32:54;7.95;;;6.07;;
31095;SDS011;17749;51.962;8.560;2023-07-31T18:35:21;7.80;;;5.70;;
31095;SDS011;17749;51.962;8.560;2023-07-31T18:37:48;7.57;;;5.47;;
31095;SDS011;17749;51.962;8.560;2023-07-31T18:40:15;9.90;;;5.15;;
31095;SDS011;17749;51.962;8.560;2023-07-31T18:42:42;9.05;;;5.55;;
31095;SDS011;17749;51.962;8.560;2023-07-31T18:45:09;8.50;;;5.00;;
31095;SDS011;17749;51.962;8.560;2023-07-31T18:47:36;7.68;;;5.20;;
31095;SDS011;17749;51.962;8.560;2023-07-31T18:50:03;7.25;;;4.47;;
31095;SDS011;17749;51.962;8.560;2023-07-31T18:52:31;7.45;;;4.47;;
31095;SDS011;17749;51.962;8.560;2023-07-31T18:54:58;6.72;;;4.63;;
31095;SDS011;17749;51.962;8.560;2023-07-31T18:57:26;7.18;;;5.10;;
31095;SDS011;17749;51.962;8.560;2023-07-31T18:59:53;6.57;;;4.70;;
31095;SDS011;17749;51.962;8.560;2023-07-31T19:02:20;7.40;;;5.28;;
31095;SDS011;17749;51.962;8.560;2023-07-31T19:04:47;7.40;;;4.68;;
31095;SDS011;17749;51.962;8.560;2023-07-31T19:07:14;8.65;;;5.82;;
31095;SDS011;17749;51.962;8.560;2023-07-31T19:09:41;7.72;;;5.03;;
31095;SDS011;17749;51.962;8.560;2023-07-31T19:12:08;9.18;;;4.85;;
31095;SDS011;17749;51.962;8.560;2023-07-31T19:14:35;9.95;;;4.72;;
31095;SDS011;17749;51.962;8.560;2023-07-31T19:17:02;6.38;;;4.25;;
31095;SDS011;17749;51.962;8.560;2023-07-31T19:19:29;8.43;;;4.75;;
31095;SDS011;17749;51.962;8.560;2023-07-31T19:21:56;7.68;;;4.82;;
31095;SDS011;17749;51.962;8.560;2023-07-31T19:24:23;8.02;;;4.72;;
31095;SDS011;17749;51.962;8.560;2023-07-31T19:26:57;6.45;;;4.55;;
31095;SDS011;17749;51.962;8.560;2023-07-31T19:29:24;8.82;;;5.03;;
31095;SDS011;17749;51.962;8.560;2023-07-31T19:31:51;8.30;;;4.88;;
31095;SDS011;17749;51.962;8.560;2023-07-31T19:34:18;8.35;;;5.00;;
31095;SDS011;17749;51.962;8.560;2023-07-31T19:36:45;6.80;;;4.90;;
31095;SDS011;17749;51.962;8.560;2023-07-31T19:39:14;8.60;;;5.20;;
31095;SDS011;17749;51.962;8.560;2023-07-31T19:41:41;8.98;;;5.28;;
31095;SDS011;17749;51.962;8.560;2023-07-31T19:44:09;10.15;;;5.15;;
31095;SDS011;17749;51.962;8.560;2023-07-31T19:46:36;6.45;;;4.45;;
31095;SDS011;17749;51.962;8.560;2023-07-31T19:49:04;6.72;;;4.85;;
31095;SDS011;17749;51.962;8.560;2023-07-31T19:51:32;6.97;;;5.35;;
31095;SDS011;17749;51.962;8.560;2023-07-31T19:53:59;6.07;;;4.70;;
31095;SDS011;17749;51.962;8.560;2023-07-31T19:56:25;5.88;;;4.95;;
31095;SDS011;17749;51.962;8.560;2023-07-31T19:59:00;5.60;;;3.95;;
31095;SDS011;17749;51.962;8.560;2023-07-31T20:01:27;8.15;;;4.60;;
31095;SDS011;17749;51.962;8.560;2023-07-31T20:03:55;6.65;;;4.80;;
31095;SDS011;17749;51.962;8.560;2023-07-31T20:06:22;10.57;;;4.38;;
31095;SDS011;17749;51.962;8.560;2023-07-31T20:08:49;7.95;;;4.88;;
31095;SDS011;17749;51.962;8.560;2023-07-31T20:11:16;6.97;;;4.85;;
31095;SDS011;17749;51.962;8.560;2023-07-31T20:13:43;8.05;;;4.72;;